Terminal Aerodrome Forecast
Issued by NWS

Home | Current Version | Previous Version | Text Only | Print | Product List | Glossary On
Versions: 1 2 3 4 5 6 7 8 9 10 11 12 13 14 15 16 17 18 19 20 21 22 23 24 25 26 27 28 29
321
FTUS46 KSEW 202329
TAFSEA
TAF
KSEA 202329Z 2100/2206 18010G18KT P6SM VCSH BKN025 OVC035
      TEMPO 2100/2102 -SHRA
     FM210200 17010G18KT P6SM VCSH SCT025 BKN040 OVC050
     FM210400 16015G25KT P6SM SCT040 BKN060 WS020/21045KT
     FM211300 16017G28KT 6SM -RA BKN030 OVC050 WS020/19050KT
     FM211900 19016G26KT P6SM -SHRA SCT018 BKN030 BKN050=

USA.gov is the U.S. government's official web portal to all federal, state and local government web resources and services.